sensor_id;sensor_type;location;lat;lon;timestamp;P1;durP1;ratioP1;P2;durP2;ratioP2
39612;SDS011;25303;48.896;13.342;2022-11-15T00:01:18;1.10;;;0.52;;
39612;SDS011;25303;48.896;13.342;2022-11-15T00:04:20;1.30;;;0.45;;
39612;SDS011;25303;48.896;13.342;2022-11-15T00:07:22;2.75;;;0.50;;
39612;SDS011;25303;48.896;13.342;2022-11-15T00:10:53;1.48;;;0.60;;
39612;SDS011;25303;48.896;13.342;2022-11-15T00:13:55;1.08;;;0.40;;
39612;SDS011;25303;48.896;13.342;2022-11-15T00:16:56;0.60;;;0.40;;
39612;SDS011;25303;48.896;13.342;2022-11-15T00:19:59;1.13;;;0.40;;
39612;SDS011;25303;48.896;13.342;2022-11-15T00:23:00;1.73;;;0.50;;
39612;SDS011;25303;48.896;13.342;2022-11-15T00:26:04;0.88;;;0.43;;
39612;SDS011;25303;48.896;13.342;2022-11-15T00:29:06;1.52;;;0.40;;
39612;SDS011;25303;48.896;13.342;2022-11-15T00:32:07;1.35;;;0.60;;
39612;SDS011;25303;48.896;13.342;2022-11-15T00:35:09;0.80;;;0.40;;
39612;SDS011;25303;48.896;13.342;2022-11-15T00:38:11;0.70;;;0.40;;
39612;SDS011;25303;48.896;13.342;2022-11-15T00:41:12;1.25;;;0.55;;
39612;SDS011;25303;48.896;13.342;2022-11-15T00:44:14;2.20;;;0.60;;
39612;SDS011;25303;48.896;13.342;2022-11-15T00:47:15;0.80;;;0.60;;
39612;SDS011;25303;48.896;13.342;2022-11-15T00:50:18;1.95;;;0.68;;
39612;SDS011;25303;48.896;13.342;2022-11-15T00:53:20;0.80;;;0.60;;
39612;SDS011;25303;48.896;13.342;2022-11-15T00:56:21;0.80;;;0.50;;
39612;SDS011;25303;48.896;13.342;2022-11-15T00:59:22;0.52;;;0.30;;
39612;SDS011;25303;48.896;13.342;2022-11-15T01:02:24;1.88;;;0.50;;
39612;SDS011;25303;48.896;13.342;2022-11-15T01:05:26;1.35;;;0.63;;
39612;SDS011;25303;48.896;13.342;2022-11-15T01:08:28;1.58;;;0.50;;
39612;SDS011;25303;48.896;13.342;2022-11-15T01:11:29;1.00;;;0.60;;
39612;SDS011;25303;48.896;13.342;2022-11-15T01:14:31;0.70;;;0.50;;
39612;SDS011;25303;48.896;13.342;2022-11-15T01:17:32;1.25;;;0.50;;
39612;SDS011;25303;48.896;13.342;2022-11-15T01:20:38;1.67;;;0.40;;
39612;SDS011;25303;48.896;13.342;2022-11-15T01:23:40;2.72;;;0.70;;
39612;SDS011;25303;48.896;13.342;2022-11-15T01:26:42;2.17;;;0.60;;
39612;SDS011;25303;48.896;13.342;2022-11-15T01:29:43;1.45;;;0.60;;
39612;SDS011;25303;48.896;13.342;2022-11-15T01:32:45;1.10;;;0.40;;
39612;SDS011;25303;48.896;13.342;2022-11-15T01:35:48;1.45;;;0.65;;
39612;SDS011;25303;48.896;13.342;2022-11-15T01:38:52;0.68;;;0.52;;
39612;SDS011;25303;48.896;13.342;2022-11-15T01:41:55;1.73;;;0.52;;
39612;SDS011;25303;48.896;13.342;2022-11-15T01:44:56;2.25;;;0.50;;
39612;SDS011;25303;48.896;13.342;2022-11-15T01:47:58;1.60;;;0.60;;
39612;SDS011;25303;48.896;13.342;2022-11-15T01:51:01;0.70;;;0.50;;
39612;SDS011;25303;48.896;13.342;2022-11-15T01:54:08;1.38;;;0.55;;
39612;SDS011;25303;48.896;13.342;2022-11-15T01:57:15;0.63;;;0.40;;
39612;SDS011;25303;48.896;13.342;2022-11-15T02:00:16;1.08;;;0.52;;
39612;SDS011;25303;48.896;13.342;2022-11-15T02:03:18;1.45;;;0.52;;
39612;SDS011;25303;48.896;13.342;2022-11-15T02:06:24;1.50;;;0.50;;
39612;SDS011;25303;48.896;13.342;2022-11-15T02:09:25;1.02;;;0.60;;
39612;SDS011;25303;48.896;13.342;2022-11-15T02:12:27;1.00;;;0.60;;
39612;SDS011;25303;48.896;13.342;2022-11-15T02:15:33;1.83;;;0.53;;
39612;SDS011;25303;48.896;13.342;2022-11-15T02:18:46;1.83;;;0.60;;
39612;SDS011;25303;48.896;13.342;2022-11-15T02:21:55;1.30;;;0.68;;
39612;SDS011;25303;48.896;13.342;2022-11-15T02:25:15;1.00;;;0.60;;
39612;SDS011;25303;48.896;13.342;2022-11-15T02:28:44;1.95;;;0.40;;
39612;SDS011;25303;48.896;13.342;2022-11-15T02:31:55;0.73;;;0.40;;
39612;SDS011;25303;48.896;13.342;2022-11-15T02:35:06;0.77;;;0.50;;
39612;SDS011;25303;48.896;13.342;2022-11-15T02:38:16;1.73;;;0.70;;
39612;SDS011;25303;48.896;13.342;2022-11-15T02:41:24;1.27;;;0.55;;
39612;SDS011;25303;48.896;13.342;2022-11-15T02:44:33;1.17;;;0.60;;
39612;SDS011;25303;48.896;13.342;2022-11-15T02:47:41;0.80;;;0.70;;
39612;SDS011;25303;48.896;13.342;2022-11-15T02:50:45;0.68;;;0.30;;
39612;SDS011;25303;48.896;13.342;2022-11-15T02:53:46;0.73;;;0.57;;
39612;SDS011;25303;48.896;13.342;2022-11-15T02:56:48;0.65;;;0.50;;
39612;SDS011;25303;48.896;13.342;2022-11-15T02:59:56;1.17;;;0.40;;
39612;SDS011;25303;48.896;13.342;2022-11-15T03:03:09;0.82;;;0.50;;
39612;SDS011;25303;48.896;13.342;2022-11-15T03:06:22;0.82;;;0.50;;
39612;SDS011;25303;48.896;13.342;2022-11-15T03:09:33;2.10;;;0.47;;
39612;SDS011;25303;48.896;13.342;2022-11-15T03:12:36;1.67;;;0.57;;
39612;SDS011;25303;48.896;13.342;2022-11-15T03:15:49;1.90;;;0.70;;
39612;SDS011;25303;48.896;13.342;2022-11-15T03:18:58;0.65;;;0.57;;
39612;SDS011;25303;48.896;13.342;2022-11-15T03:22:06;1.13;;;0.70;;
39612;SDS011;25303;48.896;13.342;2022-11-15T03:25:10;2.13;;;0.80;;
39612;SDS011;25303;48.896;13.342;2022-11-15T03:28:16;2.05;;;1.25;;
39612;SDS011;25303;48.896;13.342;2022-11-15T03:31:23;1.42;;;0.93;;
39612;SDS011;25303;48.896;13.342;2022-11-15T03:34:51;1.80;;;1.10;;
39612;SDS011;25303;48.896;13.342;2022-11-15T03:37:57;2.53;;;1.20;;
39612;SDS011;25303;48.896;13.342;2022-11-15T03:41:06;2.60;;;1.33;;
39612;SDS011;25303;48.896;13.342;2022-11-15T03:44:16;4.05;;;1.17;;
39612;SDS011;25303;48.896;13.342;2022-11-15T03:47:27;3.50;;;1.90;;
39612;SDS011;25303;48.896;13.342;2022-11-15T03:50:34;3.92;;;1.80;;
39612;SDS011;25303;48.896;13.342;2022-11-15T03:53:37;3.00;;;1.70;;
39612;SDS011;25303;48.896;13.342;2022-11-15T03:56:38;3.30;;;1.85;;
39612;SDS011;25303;48.896;13.342;2022-11-15T03:59:39;3.03;;;1.80;;
39612;SDS011;25303;48.896;13.342;2022-11-15T04:02:41;2.20;;;1.30;;
39612;SDS011;25303;48.896;13.342;2022-11-15T04:05:44;3.22;;;1.65;;
39612;SDS011;25303;48.896;13.342;2022-11-15T04:08:45;3.25;;;1.70;;
39612;SDS011;25303;48.896;13.342;2022-11-15T04:11:46;2.75;;;1.80;;
39612;SDS011;25303;48.896;13.342;2022-11-15T04:14:48;2.17;;;1.40;;
39612;SDS011;25303;48.896;13.342;2022-11-15T04:18:07;3.10;;;2.00;;
39612;SDS011;25303;48.896;13.342;2022-11-15T04:21:10;3.97;;;2.30;;
39612;SDS011;25303;48.896;13.342;2022-11-15T04:24:28;4.35;;;2.53;;
39612;SDS011;25303;48.896;13.342;2022-11-15T04:27:30;4.53;;;2.28;;
39612;SDS011;25303;48.896;13.342;2022-11-15T04:30:31;5.60;;;2.22;;
39612;SDS011;25303;48.896;13.342;2022-11-15T04:33:32;3.92;;;2.38;;
39612;SDS011;25303;48.896;13.342;2022-11-15T04:36:35;4.03;;;2.35;;
39612;SDS011;25303;48.896;13.342;2022-11-15T04:39:54;4.25;;;1.95;;
39612;SDS011;25303;48.896;13.342;2022-11-15T04:42:55;4.03;;;2.38;;
39612;SDS011;25303;48.896;13.342;2022-11-15T04:46:02;4.20;;;2.30;;
39612;SDS011;25303;48.896;13.342;2022-11-15T04:49:04;3.40;;;2.10;;
39612;SDS011;25303;48.896;13.342;2022-11-15T04:52:06;3.30;;;1.73;;
39612;SDS011;25303;48.896;13.342;2022-11-15T04:55:08;3.53;;;1.83;;
39612;SDS011;25303;48.896;13.342;2022-11-15T04:58:10;3.28;;;1.70;;
39612;SDS011;25303;48.896;13.342;2022-11-15T05:01:12;4.00;;;2.00;;
39612;SDS011;25303;48.896;13.342;2022-11-15T05:04:15;2.70;;;1.80;;
39612;SDS011;25303;48.896;13.342;2022-11-15T05:07:21;4.78;;;2.00;;
39612;SDS011;25303;48.896;13.342;2022-11-15T05:10:22;4.50;;;2.30;;
39612;SDS011;25303;48.896;13.342;2022-11-15T05:13:24;4.97;;;2.40;;
39612;SDS011;25303;48.896;13.342;2022-11-15T05:16:25;4.63;;;2.38;;
39612;SDS011;25303;48.896;13.342;2022-11-15T05:19:26;4.13;;;2.17;;
39612;SDS011;25303;48.896;13.342;2022-11-15T05:22:30;3.70;;;2.10;;
39612;SDS011;25303;48.896;13.342;2022-11-15T05:25:31;3.78;;;2.25;;
39612;SDS011;25303;48.896;13.342;2022-11-15T05:28:33;3.75;;;1.90;;
39612;SDS011;25303;48.896;13.342;2022-11-15T05:31:37;3.92;;;2.20;;
39612;SDS011;25303;48.896;13.342;2022-11-15T05:34:41;3.40;;;2.00;;
39612;SDS011;25303;48.896;13.342;2022-11-15T05:37:44;3.63;;;2.20;;
39612;SDS011;25303;48.896;13.342;2022-11-15T05:40:45;2.90;;;1.90;;
39612;SDS011;25303;48.896;13.342;2022-11-15T05:43:47;2.80;;;1.65;;
39612;SDS011;25303;48.896;13.342;2022-11-15T05:46:50;2.60;;;1.60;;
39612;SDS011;25303;48.896;13.342;2022-11-15T05:49:54;2.88;;;1.58;;
39612;SDS011;25303;48.896;13.342;2022-11-15T05:52:58;3.13;;;1.60;;
39612;SDS011;25303;48.896;13.342;2022-11-15T05:56:04;2.10;;;1.48;;
39612;SDS011;25303;48.896;13.342;2022-11-15T05:59:06;4.38;;;2.30;;
39612;SDS011;25303;48.896;13.342;2022-11-15T06:02:09;3.47;;;1.58;;
39612;SDS011;25303;48.896;13.342;2022-11-15T06:05:11;3.25;;;1.95;;
39612;SDS011;25303;48.896;13.342;2022-11-15T06:08:13;3.42;;;2.00;;
39612;SDS011;25303;48.896;13.342;2022-11-15T06:11:15;2.85;;;1.70;;
39612;SDS011;25303;48.896;13.342;2022-11-15T06:14:17;3.45;;;1.80;;
39612;SDS011;25303;48.896;13.342;2022-11-15T06:17:18;3.10;;;2.08;;
39612;SDS011;25303;48.896;13.342;2022-11-15T06:20:20;3.53;;;1.85;;
39612;SDS011;25303;48.896;13.342;2022-11-15T06:23:23;2.65;;;1.67;;
39612;SDS011;25303;48.896;13.342;2022-11-15T06:26:25;3.85;;;2.05;;
39612;SDS011;25303;48.896;13.342;2022-11-15T06:29:26;3.10;;;1.90;;
39612;SDS011;25303;48.896;13.342;2022-11-15T06:32:28;3.65;;;2.20;;
39612;SDS011;25303;48.896;13.342;2022-11-15T06:35:30;3.20;;;1.92;;
39612;SDS011;25303;48.896;13.342;2022-11-15T06:38:35;4.18;;;2.20;;
39612;SDS011;25303;48.896;13.342;2022-11-15T06:41:37;3.45;;;2.17;;
39612;SDS011;25303;48.896;13.342;2022-11-15T06:44:38;5.22;;;2.60;;
39612;SDS011;25303;48.896;13.342;2022-11-15T06:47:44;3.40;;;2.08;;
39612;SDS011;25303;48.896;13.342;2022-11-15T06:53:53;4.50;;;2.13;;
39612;SDS011;25303;48.896;13.342;2022-11-15T06:56:55;4.82;;;2.78;;
39612;SDS011;25303;48.896;13.342;2022-11-15T06:59:56;4.10;;;1.92;;
39612;SDS011;25303;48.896;13.342;2022-11-15T07:02:59;3.20;;;1.95;;
39612;SDS011;25303;48.896;13.342;2022-11-15T07:06:00;4.13;;;2.15;;
39612;SDS011;25303;48.896;13.342;2022-11-15T07:09:07;3.58;;;2.03;;
39612;SDS011;25303;48.896;13.342;2022-11-15T07:12:09;2.90;;;1.80;;
39612;SDS011;25303;48.896;13.342;2022-11-15T07:15:10;3.35;;;1.98;;
39612;SDS011;25303;48.896;13.342;2022-11-15T07:18:12;2.83;;;1.67;;
39612;SDS011;25303;48.896;13.342;2022-11-15T07:21:13;3.63;;;2.10;;
39612;SDS011;25303;48.896;13.342;2022-11-15T07:24:16;4.22;;;2.40;;
39612;SDS011;25303;48.896;13.342;2022-11-15T07:27:17;4.13;;;2.22;;
39612;SDS011;25303;48.896;13.342;2022-11-15T07:30:19;3.58;;;1.98;;
39612;SDS011;25303;48.896;13.342;2022-11-15T07:33:21;2.28;;;1.60;;
39612;SDS011;25303;48.896;13.342;2022-11-15T07:36:22;4.10;;;1.77;;
39612;SDS011;25303;48.896;13.342;2022-11-15T07:39:25;2.25;;;1.40;;
39612;SDS011;25303;48.896;13.342;2022-11-15T07:42:26;1.80;;;1.23;;
39612;SDS011;25303;48.896;13.342;2022-11-15T07:45:45;1.95;;;1.20;;
39612;SDS011;25303;48.896;13.342;2022-11-15T07:48:46;1.60;;;1.00;;
39612;SDS011;25303;48.896;13.342;2022-11-15T07:51:48;2.03;;;1.30;;
39612;SDS011;25303;48.896;13.342;2022-11-15T07:54:51;3.20;;;1.00;;
39612;SDS011;25303;48.896;13.342;2022-11-15T07:57:52;1.15;;;0.82;;
39612;SDS011;25303;48.896;13.342;2022-11-15T08:00:54;2.05;;;1.10;;
39612;SDS011;25303;48.896;13.342;2022-11-15T08:03:56;1.70;;;0.93;;
39612;SDS011;25303;48.896;13.342;2022-11-15T08:06:57;1.75;;;0.98;;
39612;SDS011;25303;48.896;13.342;2022-11-15T08:10:00;3.00;;;0.80;;
39612;SDS011;25303;48.896;13.342;2022-11-15T08:13:04;1.70;;;0.80;;
39612;SDS011;25303;48.896;13.342;2022-11-15T08:16:08;1.65;;;0.85;;
39612;SDS011;25303;48.896;13.342;2022-11-15T08:19:09;3.17;;;1.30;;
39612;SDS011;25303;48.896;13.342;2022-11-15T08:22:11;2.70;;;1.00;;
39612;SDS011;25303;48.896;13.342;2022-11-15T08:25:13;1.70;;;0.80;;
39612;SDS011;25303;48.896;13.342;2022-11-15T08:28:15;2.35;;;0.88;;
39612;SDS011;25303;48.896;13.342;2022-11-15T08:31:17;1.55;;;0.90;;
39612;SDS011;25303;48.896;13.342;2022-11-15T08:34:19;1.48;;;1.00;;
39612;SDS011;25303;48.896;13.342;2022-11-15T08:37:20;1.50;;;1.10;;
39612;SDS011;25303;48.896;13.342;2022-11-15T08:40:23;2.20;;;1.10;;
39612;SDS011;25303;48.896;13.342;2022-11-15T08:43:26;2.45;;;1.00;;
39612;SDS011;25303;48.896;13.342;2022-11-15T08:46:28;3.53;;;0.80;;
39612;SDS011;25303;48.896;13.342;2022-11-15T08:49:30;2.67;;;1.10;;
39612;SDS011;25303;48.896;13.342;2022-11-15T08:52:31;2.60;;;1.10;;
39612;SDS011;25303;48.896;13.342;2022-11-15T08:55:35;2.80;;;1.27;;
39612;SDS011;25303;48.896;13.342;2022-11-15T08:58:37;2.40;;;0.80;;
39612;SDS011;25303;48.896;13.342;2022-11-15T09:01:39;1.58;;;0.88;;
39612;SDS011;25303;48.896;13.342;2022-11-15T09:04:41;3.28;;;0.85;;
39612;SDS011;25303;48.896;13.342;2022-11-15T09:07:43;1.33;;;0.82;;
39612;SDS011;25303;48.896;13.342;2022-11-15T09:10:46;4.25;;;1.10;;
39612;SDS011;25303;48.896;13.342;2022-11-15T09:13:47;1.30;;;0.80;;
39612;SDS011;25303;48.896;13.342;2022-11-15T09:16:49;3.40;;;0.90;;
39612;SDS011;25303;48.896;13.342;2022-11-15T09:19:50;2.47;;;1.00;;
39612;SDS011;25303;48.896;13.342;2022-11-15T09:22:52;2.80;;;1.20;;
39612;SDS011;25303;48.896;13.342;2022-11-15T09:25:59;1.80;;;1.13;;
39612;SDS011;25303;48.896;13.342;2022-11-15T09:29:02;3.13;;;1.30;;
39612;SDS011;25303;48.896;13.342;2022-11-15T09:32:03;1.65;;;1.25;;
39612;SDS011;25303;48.896;13.342;2022-11-15T09:35:05;2.40;;;1.20;;
39612;SDS011;25303;48.896;13.342;2022-11-15T09:38:07;1.98;;;1.00;;
39612;SDS011;25303;48.896;13.342;2022-11-15T09:41:17;3.50;;;1.10;;
39612;SDS011;25303;48.896;13.342;2022-11-15T09:44:41;1.15;;;0.80;;
39612;SDS011;25303;48.896;13.342;2022-11-15T09:48:00;1.98;;;1.00;;
39612;SDS011;25303;48.896;13.342;2022-11-15T09:51:18;1.90;;;1.15;;
39612;SDS011;25303;48.896;13.342;2022-11-15T09:54:10;3.03;;;1.00;;
39612;SDS011;25303;48.896;13.342;2022-11-15T09:57:21;2.05;;;1.00;;
39612;SDS011;25303;48.896;13.342;2022-11-15T10:00:09;3.08;;;0.90;;
39612;SDS011;25303;48.896;13.342;2022-11-15T10:03:20;2.85;;;1.08;;
39612;SDS011;25303;48.896;13.342;2022-11-15T10:06:08;1.55;;;0.88;;
39612;SDS011;25303;48.896;13.342;2022-11-15T10:09:05;2.00;;;0.90;;
39612;SDS011;25303;48.896;13.342;2022-11-15T10:11:54;3.47;;;0.90;;
39612;SDS011;25303;48.896;13.342;2022-11-15T10:14:49;1.13;;;0.80;;
39612;SDS011;25303;48.896;13.342;2022-11-15T10:17:59;1.45;;;0.70;;
39612;SDS011;25303;48.896;13.342;2022-11-15T10:20:49;2.10;;;0.73;;
39612;SDS011;25303;48.896;13.342;2022-11-15T10:23:38;1.65;;;0.90;;
39612;SDS011;25303;48.896;13.342;2022-11-15T10:26:21;2.63;;;1.08;;
39612;SDS011;25303;48.896;13.342;2022-11-15T10:29:06;5.75;;;1.08;;
39612;SDS011;25303;48.896;13.342;2022-11-15T10:31:51;2.72;;;1.00;;
39612;SDS011;25303;48.896;13.342;2022-11-15T10:37:26;1.42;;;0.68;;
39612;SDS011;25303;48.896;13.342;2022-11-15T10:40:16;2.42;;;1.08;;
39612;SDS011;25303;48.896;13.342;2022-11-15T10:43:06;1.80;;;0.90;;
39612;SDS011;25303;48.896;13.342;2022-11-15T10:45:59;1.60;;;1.10;;
39612;SDS011;25303;48.896;13.342;2022-11-15T10:49:23;1.65;;;0.82;;
39612;SDS011;25303;48.896;13.342;2022-11-15T10:52:12;2.55;;;1.10;;
39612;SDS011;25303;48.896;13.342;2022-11-15T10:55:01;1.90;;;1.20;;
39612;SDS011;25303;48.896;13.342;2022-11-15T10:57:49;2.22;;;1.20;;
39612;SDS011;25303;48.896;13.342;2022-11-15T11:00:34;3.90;;;1.05;;
39612;SDS011;25303;48.896;13.342;2022-11-15T11:03:27;3.92;;;1.00;;
39612;SDS011;25303;48.896;13.342;2022-11-15T11:06:14;1.95;;;1.08;;
39612;SDS011;25303;48.896;13.342;2022-11-15T11:08:58;1.48;;;0.90;;
39612;SDS011;25303;48.896;13.342;2022-11-15T11:11:46;2.05;;;1.27;;
39612;SDS011;25303;48.896;13.342;2022-11-15T11:14:31;2.25;;;1.15;;
39612;SDS011;25303;48.896;13.342;2022-11-15T11:17:16;2.25;;;1.10;;
39612;SDS011;25303;48.896;13.342;2022-11-15T11:20:08;3.25;;;1.05;;
39612;SDS011;25303;48.896;13.342;2022-11-15T11:23:05;2.20;;;0.93;;
39612;SDS011;25303;48.896;13.342;2022-11-15T11:26:09;2.38;;;1.25;;
39612;SDS011;25303;48.896;13.342;2022-11-15T11:29:01;2.33;;;0.90;;
39612;SDS011;25303;48.896;13.342;2022-11-15T11:31:52;2.55;;;1.00;;
39612;SDS011;25303;48.896;13.342;2022-11-15T11:34:47;2.35;;;1.10;;
39612;SDS011;25303;48.896;13.342;2022-11-15T11:37:39;1.90;;;0.90;;
39612;SDS011;25303;48.896;13.342;2022-11-15T11:40:30;2.35;;;1.00;;
39612;SDS011;25303;48.896;13.342;2022-11-15T11:43:20;2.42;;;0.90;;
39612;SDS011;25303;48.896;13.342;2022-11-15T11:46:15;2.30;;;0.88;;
39612;SDS011;25303;48.896;13.342;2022-11-15T11:49:19;1.80;;;0.90;;
39612;SDS011;25303;48.896;13.342;2022-11-15T11:52:09;2.03;;;1.10;;
39612;SDS011;25303;48.896;13.342;2022-11-15T11:54:58;2.38;;;1.10;;
39612;SDS011;25303;48.896;13.342;2022-11-15T11:57:46;3.03;;;1.10;;
39612;SDS011;25303;48.896;13.342;2022-11-15T12:00:38;3.65;;;1.30;;
39612;SDS011;25303;48.896;13.342;2022-11-15T12:03:25;1.63;;;1.10;;
39612;SDS011;25303;48.896;13.342;2022-11-15T12:06:20;2.30;;;0.90;;
39612;SDS011;25303;48.896;13.342;2022-11-15T12:09:07;1.92;;;0.95;;
39612;SDS011;25303;48.896;13.342;2022-11-15T12:11:59;2.00;;;0.98;;
39612;SDS011;25303;48.896;13.342;2022-11-15T12:14:49;2.30;;;0.93;;
39612;SDS011;25303;48.896;13.342;2022-11-15T12:17:38;1.52;;;1.08;;
39612;SDS011;25303;48.896;13.342;2022-11-15T12:20:23;1.95;;;0.85;;
39612;SDS011;25303;48.896;13.342;2022-11-15T12:23:11;1.98;;;0.85;;
39612;SDS011;25303;48.896;13.342;2022-11-15T12:25:58;2.75;;;0.90;;
39612;SDS011;25303;48.896;13.342;2022-11-15T12:28:47;3.22;;;1.10;;
39612;SDS011;25303;48.896;13.342;2022-11-15T12:31:50;2.10;;;0.77;;
39612;SDS011;25303;48.896;13.342;2022-11-15T12:34:41;1.70;;;1.00;;
39612;SDS011;25303;48.896;13.342;2022-11-15T12:40:36;2.55;;;0.80;;
39612;SDS011;25303;48.896;13.342;2022-11-15T12:49:46;1.45;;;0.75;;
39612;SDS011;25303;48.896;13.342;2022-11-15T12:52:29;2.60;;;0.90;;
39612;SDS011;25303;48.896;13.342;2022-11-15T12:55:29;3.25;;;1.10;;
39612;SDS011;25303;48.896;13.342;2022-11-15T12:58:24;3.22;;;1.10;;
39612;SDS011;25303;48.896;13.342;2022-11-15T13:01:14;2.10;;;0.90;;
39612;SDS011;25303;48.896;13.342;2022-11-15T13:04:33;2.95;;;1.15;;
39612;SDS011;25303;48.896;13.342;2022-11-15T13:10:32;2.45;;;0.90;;
39612;SDS011;25303;48.896;13.342;2022-11-15T13:13:16;1.83;;;0.70;;
39612;SDS011;25303;48.896;13.342;2022-11-15T13:16:25;2.45;;;0.90;;
39612;SDS011;25303;48.896;13.342;2022-11-15T13:19:09;1.88;;;0.70;;
39612;SDS011;25303;48.896;13.342;2022-11-15T13:21:54;1.60;;;0.90;;
39612;SDS011;25303;48.896;13.342;2022-11-15T13:24:55;1.50;;;0.75;;
39612;SDS011;25303;48.896;13.342;2022-11-15T13:27:38;1.42;;;0.90;;
39612;SDS011;25303;48.896;13.342;2022-11-15T13:33:07;2.53;;;0.80;;
39612;SDS011;25303;48.896;13.342;2022-11-15T13:35:53;4.07;;;0.85;;
39612;SDS011;25303;48.896;13.342;2022-11-15T13:38:40;1.63;;;1.05;;
39612;SDS011;25303;48.896;13.342;2022-11-15T13:41:24;1.10;;;0.70;;
39612;SDS011;25303;48.896;13.342;2022-11-15T13:44:17;0.98;;;0.70;;
39612;SDS011;25303;48.896;13.342;2022-11-15T13:47:03;1.33;;;0.70;;
39612;SDS011;25303;48.896;13.342;2022-11-15T13:49:47;0.50;;;0.47;;
39612;SDS011;25303;48.896;13.342;2022-11-15T13:52:31;3.05;;;1.13;;
39612;SDS011;25303;48.896;13.342;2022-11-15T13:55:20;3.95;;;0.90;;
39612;SDS011;25303;48.896;13.342;2022-11-15T13:58:04;1.65;;;0.90;;
39612;SDS011;25303;48.896;13.342;2022-11-15T14:00:48;2.63;;;1.05;;
39612;SDS011;25303;48.896;13.342;2022-11-15T14:03:45;1.83;;;0.75;;
39612;SDS011;25303;48.896;13.342;2022-11-15T14:06:31;2.35;;;0.90;;
39612;SDS011;25303;48.896;13.342;2022-11-15T14:09:16;1.85;;;0.90;;
39612;SDS011;25303;48.896;13.342;2022-11-15T14:12:22;2.67;;;1.00;;
39612;SDS011;25303;48.896;13.342;2022-11-15T14:15:19;1.30;;;0.80;;
39612;SDS011;25303;48.896;13.342;2022-11-15T14:18:38;1.92;;;1.02;;
39612;SDS011;25303;48.896;13.342;2022-11-15T14:21:27;2.60;;;1.05;;
39612;SDS011;25303;48.896;13.342;2022-11-15T14:24:14;2.80;;;1.08;;
39612;SDS011;25303;48.896;13.342;2022-11-15T14:26:57;1.60;;;0.85;;
39612;SDS011;25303;48.896;13.342;2022-11-15T14:30:00;2.25;;;0.90;;
39612;SDS011;25303;48.896;13.342;2022-11-15T14:32:44;1.63;;;0.90;;
39612;SDS011;25303;48.896;13.342;2022-11-15T14:35:28;2.13;;;0.95;;
39612;SDS011;25303;48.896;13.342;2022-11-15T14:38:11;3.75;;;1.30;;
39612;SDS011;25303;48.896;13.342;2022-11-15T14:40:55;4.20;;;1.10;;
39612;SDS011;25303;48.896;13.342;2022-11-15T14:43:38;3.30;;;1.20;;
39612;SDS011;25303;48.896;13.342;2022-11-15T14:46:22;3.42;;;1.40;;
39612;SDS011;25303;48.896;13.342;2022-11-15T14:49:05;2.80;;;1.50;;
39612;SDS011;25303;48.896;13.342;2022-11-15T14:51:48;2.40;;;1.42;;
39612;SDS011;25303;48.896;13.342;2022-11-15T14:54:31;3.38;;;1.38;;
39612;SDS011;25303;48.896;13.342;2022-11-15T14:57:14;3.20;;;1.80;;
39612;SDS011;25303;48.896;13.342;2022-11-15T14:59:56;3.88;;;1.63;;
39612;SDS011;25303;48.896;13.342;2022-11-15T15:02:54;2.97;;;1.73;;
39612;SDS011;25303;48.896;13.342;2022-11-15T15:05:37;3.25;;;1.80;;
39612;SDS011;25303;48.896;13.342;2022-11-15T15:08:22;6.93;;;1.60;;
39612;SDS011;25303;48.896;13.342;2022-11-15T15:11:07;2.35;;;1.45;;
39612;SDS011;25303;48.896;13.342;2022-11-15T15:13:53;5.43;;;1.60;;
39612;SDS011;25303;48.896;13.342;2022-11-15T15:16:38;3.40;;;2.15;;
39612;SDS011;25303;48.896;13.342;2022-11-15T15:19:22;2.67;;;1.95;;
39612;SDS011;25303;48.896;13.342;2022-11-15T15:22:09;3.58;;;2.30;;
39612;SDS011;25303;48.896;13.342;2022-11-15T15:24:56;3.83;;;2.33;;
39612;SDS011;25303;48.896;13.342;2022-11-15T15:27:39;6.63;;;2.28;;
39612;SDS011;25303;48.896;13.342;2022-11-15T15:30:22;4.15;;;2.47;;
39612;SDS011;25303;48.896;13.342;2022-11-15T15:33:06;7.50;;;3.25;;
39612;SDS011;25303;48.896;13.342;2022-11-15T15:35:50;6.70;;;2.95;;
39612;SDS011;25303;48.896;13.342;2022-11-15T15:38:33;4.00;;;2.05;;
39612;SDS011;25303;48.896;13.342;2022-11-15T15:41:16;4.72;;;2.33;;
39612;SDS011;25303;48.896;13.342;2022-11-15T15:43:59;5.00;;;2.80;;
39612;SDS011;25303;48.896;13.342;2022-11-15T15:46:42;5.03;;;2.45;;
39612;SDS011;25303;48.896;13.342;2022-11-15T15:49:25;4.25;;;2.72;;
39612;SDS011;25303;48.896;13.342;2022-11-15T15:52:09;5.13;;;2.90;;
39612;SDS011;25303;48.896;13.342;2022-11-15T15:54:52;5.38;;;3.20;;
39612;SDS011;25303;48.896;13.342;2022-11-15T15:57:35;4.03;;;2.42;;
39612;SDS011;25303;48.896;13.342;2022-11-15T16:00:19;4.40;;;2.67;;
39612;SDS011;25303;48.896;13.342;2022-11-15T16:03:04;5.55;;;2.50;;
39612;SDS011;25303;48.896;13.342;2022-11-15T16:05:47;4.32;;;2.28;;
39612;SDS011;25303;48.896;13.342;2022-11-15T16:08:33;6.00;;;2.70;;
39612;SDS011;25303;48.896;13.342;2022-11-15T16:11:36;5.28;;;2.65;;
39612;SDS011;25303;48.896;13.342;2022-11-15T16:14:19;5.85;;;3.15;;
39612;SDS011;25303;48.896;13.342;2022-11-15T16:17:02;4.93;;;3.08;;
39612;SDS011;25303;48.896;13.342;2022-11-15T16:19:46;4.95;;;2.92;;
39612;SDS011;25303;48.896;13.342;2022-11-15T16:22:29;6.32;;;2.97;;
39612;SDS011;25303;48.896;13.342;2022-11-15T16:25:14;3.78;;;2.35;;
39612;SDS011;25303;48.896;13.342;2022-11-15T16:27:57;3.83;;;2.63;;
39612;SDS011;25303;48.896;13.342;2022-11-15T16:30:40;5.25;;;2.90;;
39612;SDS011;25303;48.896;13.342;2022-11-15T16:33:23;5.35;;;2.60;;
39612;SDS011;25303;48.896;13.342;2022-11-15T16:36:12;3.83;;;2.35;;
39612;SDS011;25303;48.896;13.342;2022-11-15T16:39:08;3.63;;;2.13;;
39612;SDS011;25303;48.896;13.342;2022-11-15T16:41:55;2.80;;;1.80;;
39612;SDS011;25303;48.896;13.342;2022-11-15T16:44:38;3.00;;;1.73;;
39612;SDS011;25303;48.896;13.342;2022-11-15T16:47:21;4.78;;;2.20;;
39612;SDS011;25303;48.896;13.342;2022-11-15T16:50:04;4.63;;;2.30;;
39612;SDS011;25303;48.896;13.342;2022-11-15T16:52:48;5.85;;;2.38;;
39612;SDS011;25303;48.896;13.342;2022-11-15T16:55:32;4.25;;;2.30;;
39612;SDS011;25303;48.896;13.342;2022-11-15T16:58:20;4.47;;;2.47;;
39612;SDS011;25303;48.896;13.342;2022-11-15T17:01:18;4.10;;;2.40;;
39612;SDS011;25303;48.896;13.342;2022-11-15T17:04:04;4.53;;;2.78;;
39612;SDS011;25303;48.896;13.342;2022-11-15T17:06:53;5.10;;;3.05;;
39612;SDS011;25303;48.896;13.342;2022-11-15T17:09:36;7.10;;;3.17;;
39612;SDS011;25303;48.896;13.342;2022-11-15T17:12:19;9.05;;;4.65;;
39612;SDS011;25303;48.896;13.342;2022-11-15T17:15:04;7.85;;;4.35;;
39612;SDS011;25303;48.896;13.342;2022-11-15T17:17:50;7.18;;;4.00;;
39612;SDS011;25303;48.896;13.342;2022-11-15T17:20:34;8.45;;;5.07;;
39612;SDS011;25303;48.896;13.342;2022-11-15T17:23:16;9.85;;;5.35;;
39612;SDS011;25303;48.896;13.342;2022-11-15T17:25:59;15.38;;;8.00;;
39612;SDS011;25303;48.896;13.342;2022-11-15T17:29:04;14.27;;;7.07;;
39612;SDS011;25303;48.896;13.342;2022-11-15T17:34:33;8.23;;;4.40;;
39612;SDS011;25303;48.896;13.342;2022-11-15T17:37:16;8.30;;;4.20;;
39612;SDS011;25303;48.896;13.342;2022-11-15T17:39:59;7.07;;;4.22;;
39612;SDS011;25303;48.896;13.342;2022-11-15T17:42:42;8.18;;;4.60;;
39612;SDS011;25303;48.896;13.342;2022-11-15T17:45:25;7.38;;;4.10;;
39612;SDS011;25303;48.896;13.342;2022-11-15T17:48:09;6.35;;;3.78;;
39612;SDS011;25303;48.896;13.342;2022-11-15T17:50:56;6.75;;;3.25;;
39612;SDS011;25303;48.896;13.342;2022-11-15T17:53:41;6.78;;;3.70;;